Weather at Adelaide Parafield Airport

Public forecast

Using degrees Celsius for public forecast. Weather courtesy of forecast.io.

Closest aviation weather report (METAR) to Adelaide Parafield Airport

Closest report is Adelaide International Airport, 10.4 nm (19.3 km) SSW. Retrieved 2021/09/21 14:00 UTC (11 minutes ago):

YPAD 211400Z 22011KT 9999 SCT026 BKN036 12/09 Q1032

Closest aviation forecast (TAF) to Adelaide Parafield Airport

Closest forecast is Adelaide International Airport, 10.4 nm (19.3 km) SSW. Retrieved 2021/09/21 15:00 UTC (0 seconds ago):

TAF YPAD 211404Z 2115/2218 22010KT 9999 -DZ SCT012 BKN020 FM220200 26010KT 9999 -SHRA FEW015 BKN025 FM220600 24008KT 9999 -SHRA BKN020 FM221000 30005KT 9999 -DZ SCT010 BKN020 TEMPO 2115/2201 3000 DZ BKN008